createdAt,value
2022-12-11T00:00:30.455Z,-5.44
2022-12-11T00:02:58.415Z,-5.40
2022-12-11T00:05:26.316Z,-5.68
2022-12-11T00:07:54.117Z,-5.47
2022-12-11T00:10:21.949Z,-5.47
2022-12-11T00:12:49.731Z,-5.51
2022-12-11T00:15:18.892Z,-5.59
2022-12-11T00:17:46.718Z,-5.63
2022-12-11T00:20:14.503Z,-5.64
2022-12-11T00:22:42.290Z,-5.62
2022-12-11T00:25:10.825Z,-5.69
2022-12-11T00:27:39.265Z,-5.74
2022-12-11T00:30:08.402Z,-5.72
2022-12-11T00:32:37.932Z,-5.75
2022-12-11T00:35:06.365Z,-5.77
2022-12-11T00:37:34.226Z,-5.80
2022-12-11T00:40:02.023Z,-5.82
2022-12-11T00:42:29.845Z,-5.88
2022-12-11T00:44:57.853Z,-5.92
2022-12-11T00:47:25.645Z,-5.93
2022-12-11T00:49:54.790Z,-5.97
2022-12-11T00:52:23.431Z,-5.99
2022-12-11T00:54:51.299Z,-6.00
2022-12-11T00:57:19.089Z,-5.97
2022-12-11T00:59:46.881Z,-5.93
2022-12-11T01:02:14.668Z,-5.94
2022-12-11T01:04:42.483Z,-5.95
2022-12-11T01:07:11.677Z,-5.97
2022-12-11T01:09:57.194Z,-5.97
2022-12-11T01:12:26.352Z,-5.97
2022-12-11T01:14:54.101Z,-5.98
2022-12-11T01:17:21.892Z,-6.04
2022-12-11T01:19:49.683Z,-6.07
2022-12-11T01:22:18.867Z,-6.03
2022-12-11T01:24:46.676Z,-6.08
2022-12-11T01:27:14.847Z,-6.10
2022-12-11T01:29:42.620Z,-6.09
2022-12-11T01:32:10.403Z,-6.09
2022-12-11T01:34:38.257Z,-6.13
2022-12-11T01:37:06.047Z,-6.12
2022-12-11T01:39:35.302Z,-6.14
2022-12-11T01:42:03.143Z,-6.14
2022-12-11T01:45:08.432Z,-6.17
2022-12-11T01:47:36.443Z,-6.18
2022-12-11T01:50:05.006Z,-6.14
2022-12-11T01:52:32.830Z,-6.19
2022-12-11T01:55:02.556Z,-6.23
2022-12-11T01:57:31.176Z,-6.26
2022-12-11T01:59:59.042Z,-6.46
2022-12-11T02:02:30.516Z,-6.35
2022-12-11T02:04:58.532Z,-6.35
2022-12-11T02:07:26.364Z,-6.29
2022-12-11T02:09:54.419Z,-6.30
2022-12-11T02:12:30.214Z,-6.37
2022-12-11T02:15:06.584Z,-6.40
2022-12-11T02:17:39.840Z,-6.34
2022-12-11T02:20:14.028Z,-6.32
2022-12-11T02:23:05.885Z,-6.36
2022-12-11T02:25:43.288Z,-6.35
2022-12-11T02:28:19.918Z,-6.41
2022-12-11T02:30:52.824Z,-6.34
2022-12-11T02:33:27.162Z,-6.40
2022-12-11T02:35:56.110Z,-6.38
2022-12-11T02:38:28.281Z,-6.44
2022-12-11T02:40:58.605Z,-6.38
2022-12-11T02:43:28.955Z,-6.41
2022-12-11T02:45:58.866Z,-6.45
2022-12-11T02:48:27.029Z,-6.49
2022-12-11T02:50:58.899Z,-6.46
2022-12-11T02:53:30.808Z,-6.46
2022-12-11T02:56:05.282Z,-6.47
2022-12-11T02:58:36.607Z,-6.62
2022-12-11T03:01:04.428Z,-6.43
2022-12-11T03:03:32.315Z,-6.41
2022-12-11T03:06:00.148Z,-6.45
2022-12-11T03:08:28.048Z,-6.59
2022-12-11T03:10:55.870Z,-6.45
2022-12-11T03:13:24.330Z,-6.44
2022-12-11T03:16:12.322Z,-6.60
2022-12-11T03:18:45.941Z,-6.53
2022-12-11T03:21:19.910Z,-6.53
2022-12-11T03:23:55.717Z,-6.54
2022-12-11T03:26:25.092Z,-6.50
2022-12-11T03:28:59.600Z,-6.97
2022-12-11T03:31:33.039Z,-6.54
2022-12-11T03:34:07.305Z,-6.71
2022-12-11T03:36:38.523Z,-6.69
2022-12-11T03:39:10.338Z,-6.84
2022-12-11T03:41:40.063Z,-6.78
2022-12-11T03:44:09.453Z,-6.80
2022-12-11T03:46:41.057Z,-6.65
2022-12-11T03:49:15.462Z,-6.54
2022-12-11T03:51:46.396Z,-6.57
2022-12-11T03:54:14.329Z,-6.63
2022-12-11T03:56:46.601Z,-6.62
2022-12-11T03:59:14.457Z,-6.57
2022-12-11T04:01:43.647Z,-6.59
2022-12-11T04:04:11.887Z,-6.56
2022-12-11T04:06:39.750Z,-6.56
2022-12-11T04:09:07.657Z,-6.92
2022-12-11T04:11:35.436Z,-6.65
2022-12-11T04:14:21.799Z,-6.60
2022-12-11T04:16:51.075Z,-6.55
2022-12-11T04:19:37.288Z,-6.51
2022-12-11T04:22:28.146Z,-6.55
2022-12-11T04:24:55.921Z,-6.69
2022-12-11T04:27:41.265Z,-6.62
2022-12-11T04:30:12.009Z,-7.00
2022-12-11T04:32:41.266Z,-7.19
2022-12-11T04:35:11.153Z,-6.56
2022-12-11T04:37:39.311Z,-6.77
2022-12-11T04:40:10.557Z,-6.55
2022-12-11T04:42:38.506Z,-6.58
2022-12-11T04:45:08.881Z,-6.62
2022-12-11T04:47:37.756Z,-6.58
2022-12-11T04:50:08.958Z,-6.56
2022-12-11T04:52:36.777Z,-6.63
2022-12-11T04:55:05.076Z,-6.48
2022-12-11T04:57:32.883Z,-6.44
2022-12-11T05:00:00.961Z,-6.38
2022-12-11T05:02:29.035Z,-6.31
2022-12-11T05:04:56.800Z,-6.06
2022-12-11T05:07:25.947Z,-5.80
2022-12-11T05:09:53.742Z,-5.50
2022-12-11T05:12:21.533Z,-5.35
2022-12-11T05:14:52.323Z,-5.13
2022-12-11T05:17:20.431Z,-5.09
2022-12-11T05:19:49.005Z,-4.95
2022-12-11T05:22:17.328Z,-4.92
2022-12-11T05:24:46.657Z,-4.88
2022-12-11T05:27:14.454Z,-4.89
2022-12-11T05:29:42.279Z,-4.89
2022-12-11T05:32:10.221Z,-4.87
2022-12-11T05:34:38.269Z,-4.94
2022-12-11T05:37:06.190Z,-5.03
2022-12-11T05:39:34.238Z,-4.90
2022-12-11T05:42:03.395Z,-4.95
2022-12-11T05:44:31.171Z,-5.00
2022-12-11T05:46:58.973Z,-4.96
2022-12-11T05:49:30.798Z,-5.05
2022-12-11T05:51:59.061Z,-4.99
2022-12-11T05:54:26.818Z,-4.95
2022-12-11T05:56:54.595Z,-4.92
2022-12-11T05:59:23.747Z,-4.92
2022-12-11T06:01:51.675Z,-4.92
2022-12-11T06:04:19.552Z,-4.89
2022-12-11T06:06:47.344Z,-4.90
2022-12-11T06:09:16.969Z,-4.97
2022-12-11T06:11:44.737Z,-5.00
2022-12-11T06:14:13.915Z,-5.00
2022-12-11T06:16:44.036Z,-5.02
2022-12-11T06:19:16.077Z,-5.02
2022-12-11T06:21:43.981Z,-5.02
2022-12-11T06:24:12.339Z,-5.02
2022-12-11T06:26:40.307Z,-5.03
2022-12-11T06:29:12.597Z,-5.02
2022-12-11T06:31:40.728Z,-5.03
2022-12-11T06:34:10.914Z,-5.04
2022-12-11T06:36:38.650Z,-5.04
2022-12-11T06:39:06.408Z,-5.04
2022-12-11T06:41:34.188Z,-5.26
2022-12-11T06:44:02.290Z,-5.06
2022-12-11T06:46:30.262Z,-5.13
2022-12-11T06:48:58.058Z,-5.08
2022-12-11T06:51:27.214Z,-5.09
2022-12-11T06:53:56.829Z,-5.10
2022-12-11T06:56:25.578Z,-5.14
2022-12-11T06:58:53.963Z,-5.39
2022-12-11T07:01:23.893Z,-5.19
2022-12-11T07:03:53.835Z,-5.19
2022-12-11T07:06:21.633Z,-5.20
2022-12-11T07:08:50.854Z,-5.22
2022-12-11T07:11:20.223Z,-5.25
2022-12-11T07:13:48.373Z,-5.38
2022-12-11T07:16:17.901Z,-5.38
2022-12-11T07:18:49.141Z,-5.43
2022-12-11T07:21:17.151Z,-5.44
2022-12-11T07:23:45.150Z,-5.44
2022-12-11T07:26:16.202Z,-5.42
2022-12-11T07:28:44.179Z,-5.42
2022-12-11T07:31:14.153Z,-5.41
2022-12-11T07:33:43.284Z,-5.82
2022-12-11T07:36:13.844Z,-5.23
2022-12-11T07:38:42.174Z,-5.28
2022-12-11T07:41:13.483Z,-5.14
2022-12-11T07:43:43.783Z,-5.17
2022-12-11T07:46:13.518Z,-5.14
2022-12-11T07:48:43.109Z,-5.04
2022-12-11T07:51:11.828Z,-5.05
2022-12-11T07:53:39.919Z,-5.02
2022-12-11T07:56:08.397Z,-4.97
2022-12-11T07:58:37.004Z,-4.99
2022-12-11T08:01:06.476Z,-4.93
2022-12-11T08:03:34.404Z,-4.87
2022-12-11T08:06:02.566Z,-4.94
2022-12-11T08:08:30.409Z,-4.85
2022-12-11T08:11:01.899Z,-4.77
2022-12-11T08:13:29.753Z,-4.62
2022-12-11T08:15:57.544Z,-4.63
2022-12-11T08:18:26.735Z,-3.47
2022-12-11T08:20:54.513Z,-3.49
2022-12-11T08:23:22.315Z,-3.62
2022-12-11T08:25:50.142Z,-3.05
2022-12-11T08:28:17.942Z,-2.64
2022-12-11T08:30:45.758Z,-2.54
2022-12-11T08:33:13.571Z,-2.61
2022-12-11T08:35:44.038Z,-2.59
2022-12-11T08:38:11.875Z,-2.37
2022-12-11T08:40:39.644Z,-1.65
2022-12-11T08:43:07.444Z,-0.49
2022-12-11T08:45:35.509Z,-0.57
2022-12-11T08:48:03.297Z,1.66
2022-12-11T08:50:31.136Z,1.38
2022-12-11T08:53:00.272Z,2.39
2022-12-11T08:55:28.108Z,3.36
2022-12-11T08:57:56.267Z,3.87
2022-12-11T09:00:24.098Z,2.42
2022-12-11T09:02:51.911Z,3.46
2022-12-11T09:05:19.729Z,4.47
2022-12-11T09:07:47.943Z,5.78
2022-12-11T09:10:17.152Z,3.31
2022-12-11T09:12:44.906Z,5.82
2022-12-11T09:15:13.394Z,4.85
2022-12-11T09:17:41.427Z,5.91
2022-12-11T09:20:10.130Z,7.22
2022-12-11T09:22:37.907Z,8.62
2022-12-11T09:25:06.667Z,8.81
2022-12-11T09:27:36.668Z,7.95
2022-12-11T09:30:05.288Z,3.58
2022-12-11T09:32:33.089Z,5.68
2022-12-11T09:35:00.949Z,7.86
2022-12-11T09:37:28.799Z,6.86
2022-12-11T09:39:56.584Z,7.42
2022-12-11T09:42:33.398Z,3.02
2022-12-11T09:45:04.414Z,5.81
2022-12-11T09:47:37.149Z,4.26
2022-12-11T09:50:13.985Z,3.98
2022-12-11T09:52:56.491Z,6.60
2022-12-11T09:55:27.345Z,6.51
2022-12-11T09:58:03.546Z,7.51
2022-12-11T10:00:38.558Z,5.54
2022-12-11T10:03:34.006Z,6.00
2022-12-11T10:06:08.482Z,5.94
2022-12-11T10:08:45.931Z,7.11
2022-12-11T10:11:37.733Z,9.56
2022-12-11T10:14:12.410Z,6.91
2022-12-11T10:16:44.271Z,6.08
2022-12-11T10:19:18.278Z,3.07
2022-12-11T10:21:47.143Z,1.43
2022-12-11T10:24:48.943Z,0.98
2022-12-11T10:27:16.409Z,2.02
2022-12-11T10:29:44.380Z,2.52
2022-12-11T10:32:23.741Z,2.15
2022-12-11T10:34:57.271Z,1.16
2022-12-11T10:37:25.060Z,-0.58
2022-12-11T10:39:53.045Z,0.50
2022-12-11T10:42:23.127Z,-0.18
2022-12-11T10:44:59.209Z,-0.31
2022-12-11T10:47:28.904Z,0.48
2022-12-11T10:49:58.910Z,0.63
2022-12-11T10:52:29.213Z,0.53
2022-12-11T10:55:01.125Z,0.81
2022-12-11T10:57:31.107Z,0.42
2022-12-11T11:00:00.347Z,0.52
2022-12-11T11:02:32.247Z,0.25
2022-12-11T11:05:01.474Z,0.55
2022-12-11T11:07:31.391Z,1.27
2022-12-11T11:10:15.206Z,1.55
2022-12-11T11:12:45.031Z,0.79
2022-12-11T11:15:17.309Z,0.82
2022-12-11T11:17:54.862Z,0.99
2022-12-11T11:20:25.767Z,1.50
2022-12-11T11:22:57.033Z,1.79
2022-12-11T11:25:27.072Z,1.29
2022-12-11T11:28:07.384Z,2.29
2022-12-11T11:30:38.053Z,2.48
2022-12-11T11:33:14.747Z,1.12
2022-12-11T11:35:53.580Z,1.48
2022-12-11T11:38:24.425Z,2.60
2022-12-11T11:41:05.625Z,3.17
2022-12-11T11:43:41.369Z,3.65
2022-12-11T11:46:15.942Z,3.80
2022-12-11T11:48:55.635Z,4.26
2022-12-11T11:51:28.119Z,4.37
2022-12-11T11:54:00.089Z,5.13
2022-12-11T11:56:31.459Z,4.49
2022-12-11T11:59:08.519Z,4.41
2022-12-11T12:01:36.513Z,5.03
2022-12-11T12:04:06.215Z,5.61
2022-12-11T12:06:50.494Z,6.44
2022-12-11T12:09:35.037Z,5.84
2022-12-11T12:12:17.115Z,4.10
2022-12-11T12:15:03.133Z,3.46
2022-12-11T12:17:41.138Z,4.30
2022-12-11T12:20:17.711Z,4.94
2022-12-11T12:22:59.153Z,4.82
2022-12-11T12:25:32.360Z,4.56
2022-12-11T12:28:11.682Z,4.38
2022-12-11T12:30:50.713Z,4.11
2022-12-11T12:33:32.130Z,4.39
2022-12-11T12:36:12.244Z,4.21
2022-12-11T12:38:53.944Z,4.75
2022-12-11T12:41:28.389Z,5.22
2022-12-11T12:44:14.005Z,3.65
2022-12-11T12:46:52.382Z,2.92
2022-12-11T12:49:31.551Z,3.10
2022-12-11T12:52:02.834Z,4.39
2022-12-11T12:54:33.164Z,4.26
2022-12-11T12:57:04.080Z,4.77
2022-12-11T12:59:31.868Z,6.39
2022-12-11T13:02:02.309Z,7.07
2022-12-11T13:04:58.251Z,6.85
2022-12-11T13:07:30.815Z,7.18
2022-12-11T13:10:03.789Z,6.76
2022-12-11T13:12:46.032Z,6.48
2022-12-11T13:15:33.602Z,6.50
2022-12-11T13:18:03.273Z,6.16
2022-12-11T13:20:33.567Z,5.47
2022-12-11T13:23:19.158Z,5.03
2022-12-11T13:25:51.254Z,4.57
2022-12-11T13:28:28.134Z,4.17
2022-12-11T13:31:01.841Z,4.02
2022-12-11T13:33:31.057Z,3.41
2022-12-11T13:36:24.397Z,2.67
2022-12-11T13:38:57.401Z,1.87
2022-12-11T13:41:25.592Z,1.85
2022-12-11T13:43:54.658Z,1.70
2022-12-11T13:46:27.641Z,1.05
2022-12-11T13:49:00.887Z,0.80
2022-12-11T13:51:32.296Z,0.39
2022-12-11T13:54:17.974Z,0.28
2022-12-11T13:57:05.262Z,-0.05
2022-12-11T13:59:35.599Z,0.00
2022-12-11T14:02:11.236Z,0.09
2022-12-11T14:04:39.462Z,0.05
2022-12-11T14:07:10.598Z,-0.01
2022-12-11T14:09:45.437Z,-0.14
2022-12-11T14:12:19.724Z,-0.28
2022-12-11T14:14:52.302Z,-0.39
2022-12-11T14:17:25.160Z,-0.46
2022-12-11T14:19:53.470Z,-0.69
2022-12-11T14:22:23.432Z,-0.95
2022-12-11T14:24:54.578Z,-1.07
2022-12-11T14:27:22.835Z,-1.11
2022-12-11T14:29:51.108Z,-1.26
2022-12-11T14:32:24.783Z,-1.27
2022-12-11T14:34:53.803Z,-1.43
2022-12-11T14:37:24.313Z,-1.43
2022-12-11T14:39:58.814Z,-1.50
2022-12-11T14:42:31.710Z,-1.57
2022-12-11T14:45:04.697Z,-1.62
2022-12-11T14:47:37.995Z,-1.72
2022-12-11T14:50:09.201Z,-1.83
2022-12-11T14:52:41.019Z,-2.14
2022-12-11T14:55:16.322Z,-2.06
2022-12-11T14:57:47.459Z,-2.07
2022-12-11T15:00:26.628Z,-1.98
2022-12-11T15:03:03.018Z,-2.03
2022-12-11T15:05:37.178Z,-2.16
2022-12-11T15:08:24.719Z,-2.20
2022-12-11T15:11:06.961Z,-2.31
2022-12-11T15:13:37.203Z,-2.33
2022-12-11T15:16:08.371Z,-2.45
2022-12-11T15:18:40.247Z,-3.24
2022-12-11T15:21:10.811Z,-2.59
2022-12-11T15:23:50.971Z,-2.75
2022-12-11T15:26:20.707Z,-2.88
2022-12-11T15:28:48.580Z,-2.87
2022-12-11T15:31:26.414Z,-2.97
2022-12-11T15:33:54.612Z,-3.44
2022-12-11T15:36:26.674Z,-3.02
2022-12-11T15:38:54.554Z,-3.02
2022-12-11T15:41:24.880Z,-3.06
2022-12-11T15:43:58.258Z,-3.08
2022-12-11T15:46:27.036Z,-3.15
2022-12-11T15:48:56.438Z,-3.14
2022-12-11T15:51:25.320Z,-3.18
2022-12-11T15:53:53.097Z,-3.16
2022-12-11T15:56:20.940Z,-3.20
2022-12-11T15:58:50.697Z,-3.26
2022-12-11T16:01:18.644Z,-3.21
2022-12-11T16:03:46.426Z,-3.22
2022-12-11T16:06:14.755Z,-3.21
2022-12-11T16:08:42.540Z,-3.13
2022-12-11T16:11:13.682Z,-3.43
2022-12-11T16:13:41.516Z,-3.17
2022-12-11T16:16:15.158Z,-3.13
2022-12-11T16:18:42.913Z,-3.12
2022-12-11T16:21:10.694Z,-3.07
2022-12-11T16:23:38.492Z,-3.10
2022-12-11T16:26:10.328Z,-3.10
2022-12-11T16:28:38.233Z,-3.12
2022-12-11T16:31:12.897Z,-3.01
2022-12-11T16:33:41.271Z,-3.00
2022-12-11T16:36:16.030Z,-2.93
2022-12-11T16:38:52.881Z,-2.97
2022-12-11T16:41:21.519Z,-2.96
2022-12-11T16:43:49.272Z,-3.08
2022-12-11T16:46:20.280Z,-3.19
2022-12-11T16:48:48.354Z,-3.10
2022-12-11T16:51:16.313Z,-3.02
2022-12-11T16:53:44.084Z,-3.08
2022-12-11T16:56:11.870Z,-3.05
2022-12-11T16:58:40.548Z,-3.01
2022-12-11T17:01:12.120Z,-3.51
2022-12-11T17:03:42.140Z,-2.85
2022-12-11T17:06:11.980Z,-2.85
2022-12-11T17:08:40.083Z,-2.85
2022-12-11T17:11:09.936Z,-2.97
2022-12-11T17:13:38.218Z,-2.92
2022-12-11T17:16:06.613Z,-2.84
2022-12-11T17:18:34.394Z,-2.78
2022-12-11T17:21:08.970Z,-2.77
2022-12-11T17:23:37.040Z,-2.76
2022-12-11T17:26:05.638Z,-2.74
2022-12-11T17:28:33.710Z,-2.92
2022-12-11T17:31:04.902Z,-2.99
2022-12-11T17:33:32.783Z,-3.39
2022-12-11T17:36:00.703Z,-3.02
2022-12-11T17:38:29.868Z,-2.97
2022-12-11T17:40:58.322Z,-2.96
2022-12-11T17:43:26.114Z,-2.91
2022-12-11T17:45:55.140Z,-2.91
2022-12-11T17:48:23.389Z,-2.95
2022-12-11T17:50:52.609Z,-3.03
2022-12-11T17:53:22.459Z,-3.10
2022-12-11T17:55:52.625Z,-3.18
2022-12-11T17:58:23.778Z,-3.22
2022-12-11T18:00:54.191Z,-3.29
2022-12-11T18:03:22.607Z,-3.33
2022-12-11T18:05:52.176Z,-3.35
2022-12-11T18:08:23.002Z,-3.52
2022-12-11T18:10:52.658Z,-3.54
2022-12-11T18:13:20.707Z,-3.92
2022-12-11T18:15:48.711Z,-3.71
2022-12-11T18:18:16.581Z,-3.80
2022-12-11T18:20:44.358Z,-3.93
2022-12-11T18:23:12.211Z,-4.06
2022-12-11T18:25:40.167Z,-4.20
2022-12-11T18:28:09.468Z,-4.35
2022-12-11T18:30:37.244Z,-4.49
2022-12-11T18:33:05.007Z,-4.55
2022-12-11T18:35:32.961Z,-4.72
2022-12-11T18:38:00.772Z,-4.68
2022-12-11T18:40:28.851Z,-4.77
2022-12-11T18:42:56.902Z,-4.76
2022-12-11T18:45:27.752Z,-4.84
2022-12-11T18:47:56.559Z,-4.90
2022-12-11T18:50:24.698Z,-4.98
2022-12-11T18:52:55.053Z,-5.04
2022-12-11T18:55:23.663Z,-5.10
2022-12-11T18:57:51.560Z,-5.17
2022-12-11T19:00:20.074Z,-5.21
2022-12-11T19:02:51.316Z,-5.24
2022-12-11T19:05:19.240Z,-5.31
2022-12-11T19:07:47.493Z,-6.35
2022-12-11T19:10:15.325Z,-5.37
2022-12-11T19:12:43.129Z,-5.44
2022-12-11T19:15:12.360Z,-5.50
2022-12-11T19:17:40.286Z,-5.63
2022-12-11T19:20:47.077Z,-5.55
2022-12-11T19:22:59.595Z,-5.57
2022-12-11T19:25:27.374Z,-5.54
2022-12-11T19:27:56.895Z,-5.57
2022-12-11T19:30:25.314Z,-5.58
2022-12-11T19:32:53.160Z,-5.57
2022-12-11T19:35:22.279Z,-5.57
2022-12-11T19:37:50.047Z,-5.55
2022-12-11T19:40:18.823Z,-5.57
2022-12-11T19:42:46.570Z,-5.63
2022-12-11T19:45:14.498Z,-5.67
2022-12-11T19:47:42.403Z,-5.65
2022-12-11T19:50:10.396Z,-5.64
2022-12-11T19:52:44.580Z,-5.78
2022-12-11T19:55:15.146Z,-5.74
2022-12-11T19:57:43.011Z,-5.69
2022-12-11T20:00:11.724Z,-5.79
2022-12-11T20:02:39.492Z,-5.95
2022-12-11T20:05:08.156Z,-5.95
2022-12-11T20:07:35.948Z,-5.75
2022-12-11T20:10:05.764Z,-5.78
2022-12-11T20:12:33.624Z,-5.79
2022-12-11T20:15:01.436Z,-6.45
2022-12-11T20:17:29.244Z,-5.82
2022-12-11T20:19:57.049Z,-5.91
2022-12-11T20:22:24.894Z,-5.84
2022-12-11T20:24:52.788Z,-5.85
2022-12-11T20:27:21.980Z,-5.85
2022-12-11T20:29:49.754Z,-5.88
2022-12-11T20:32:17.472Z,-5.89
2022-12-11T20:34:45.256Z,-5.95
2022-12-11T20:37:13.531Z,-5.96
2022-12-11T20:39:41.304Z,-5.99
2022-12-11T20:42:10.539Z,-6.00
2022-12-11T20:44:44.099Z,-6.01
2022-12-11T20:47:19.152Z,-6.34
2022-12-11T20:49:47.079Z,-6.03
2022-12-11T20:52:15.112Z,-6.19
2022-12-11T20:54:42.950Z,-6.16
2022-12-11T20:57:11.309Z,-6.09
2022-12-11T20:59:40.734Z,-6.21
2022-12-11T21:02:09.451Z,-6.35
2022-12-11T21:04:39.597Z,-6.41
2022-12-11T21:07:07.920Z,-6.20
2022-12-11T21:09:36.348Z,-6.07
2022-12-11T21:12:04.296Z,-6.06
2022-12-11T21:14:32.262Z,-6.52
2022-12-11T21:17:01.601Z,-6.03
2022-12-11T21:19:29.899Z,-6.08
2022-12-11T21:21:58.287Z,-6.07
2022-12-11T21:24:27.902Z,-6.47
2022-12-11T21:26:56.472Z,-6.13
2022-12-11T21:29:25.682Z,-6.12
2022-12-11T21:31:54.583Z,-6.05
2022-12-11T21:34:25.718Z,-6.17
2022-12-11T21:36:56.770Z,-6.01
2022-12-11T21:39:25.600Z,-6.06
2022-12-11T21:41:53.504Z,-6.03
2022-12-11T21:47:09.743Z,-6.04
2022-12-11T21:49:39.631Z,-6.05
2022-12-11T21:52:08.359Z,-6.06
2022-12-11T21:54:36.545Z,-6.31
2022-12-11T21:57:04.780Z,-6.06
2022-12-11T21:59:32.852Z,-6.06
2022-12-11T22:02:00.746Z,-6.07
2022-12-11T22:04:28.548Z,-6.07
2022-12-11T22:06:57.791Z,-6.11
2022-12-11T22:09:25.812Z,-6.34
2022-12-11T22:11:58.051Z,-6.13
2022-12-11T22:14:27.003Z,-6.10
2022-12-11T22:16:54.863Z,-6.08
2022-12-11T22:19:23.988Z,-6.12
2022-12-11T22:21:54.410Z,-6.04
2022-12-11T22:24:23.523Z,-6.11
2022-12-11T22:26:51.334Z,-6.11
2022-12-11T22:29:19.167Z,-6.15
2022-12-11T22:31:47.473Z,-6.44
2022-12-11T22:34:15.286Z,-6.17
2022-12-11T22:36:43.063Z,-6.19
2022-12-11T22:39:10.972Z,-6.21
2022-12-11T22:41:42.273Z,-6.19
2022-12-11T22:44:14.398Z,-6.08
2022-12-11T22:46:45.420Z,-6.08
2022-12-11T22:49:17.403Z,-6.09
2022-12-11T22:51:45.393Z,-6.18
2022-12-11T22:54:13.992Z,-6.15
2022-12-11T22:56:43.177Z,-6.14
2022-12-11T22:59:10.963Z,-6.16
2022-12-11T23:01:38.855Z,-6.38
2022-12-11T23:04:06.631Z,-6.20
2022-12-11T23:06:34.569Z,-6.27
2022-12-11T23:09:02.653Z,-6.26
2022-12-11T23:11:35.035Z,-6.22
2022-12-11T23:14:04.759Z,-6.22
2022-12-11T23:16:32.624Z,-6.24
2022-12-11T23:19:01.081Z,-6.27
2022-12-11T23:21:29.864Z,-6.27
2022-12-11T23:23:58.537Z,-6.29
2022-12-11T23:26:28.320Z,-6.28
2022-12-11T23:28:57.121Z,-6.26
2022-12-11T23:31:27.240Z,-6.30
2022-12-11T23:33:55.599Z,-6.89
2022-12-11T23:36:23.872Z,-6.40
2022-12-11T23:38:54.756Z,-6.35
2022-12-11T23:41:23.808Z,-6.28
2022-12-11T23:43:51.576Z,-6.29
2022-12-11T23:46:22.313Z,-6.28
2022-12-11T23:48:52.132Z,-6.26
2022-12-11T23:51:21.731Z,-6.31
2022-12-11T23:53:49.520Z,-6.28
2022-12-11T23:56:20.256Z,-6.27
2022-12-11T23:58:48.182Z,-6.28
